• Join FlightAware (Why Join?)
  • Login
  • US Flag 
11:28PM EST


 

Airport Tracker/Info


-or-


 

Live Flight TrackerFlight Track Log ✈ CJT620 ✈ 12-Apr-2013 ✈ CYQM - CYHZ

Flight Track Log - Related Links

Times and Time Zones

All times are in EDT time to prevent confusion due to time zone crossing. See the CJT620 flight status page for this flight to view local times or setup timezone preferences in your user account.

Time Position Orientation Groundspeed Altitude Reporting Facility
EDT Latitude Longitude Course Direction KTS MPH feet Rate Location/Type
02:42AM 46.1000 -64.7333 270° West 160 184 3,300  Level Moncton Center
02:43AM 46.0333 -64.7333 180° South 250 288 6,100 3,240 Climbing Moncton Center
02:44AM 45.9667 -64.6833 152° Southeast 290 334 9,800 2,760 Climbing Moncton Center
02:45AM 45.8833 -64.5833 140° Southeast 350 403 11,700 2,400 Climbing Moncton Center
02:46AM 45.7833 -64.5167 155° Southeast 400 460 14,700 1,620 Climbing Moncton Center
02:47AM 45.6833 -64.4000 141° Southeast 440 506 15,000 120 Climbing Moncton Center
02:48AM 45.5667 -64.2833 145° Southeast 450 518 15,000 -240 Level Moncton Center
02:49AM 45.5000 -64.1667 129° Southeast 450 518 14,600 -1,380 Descending Moncton Center
02:50AM 45.4167 -64.0167 128° Southeast 450 518 12,300 -2,340 Descending Moncton Center
02:51AM 45.3500 -63.9000 129° Southeast 410 472 10,000 -1,200 Descending Moncton Center
02:52AM 45.3000 -63.7833 121° Southeast 350 403 10,000 -540 Level Moncton Center
02:53AM 45.2500 -63.6833 125° Southeast 300 345 9,000 -1,080 Descending Moncton Center
02:54AM 45.2000 -63.5833 125° Southeast 280 322 7,900 -1,200 Descending Moncton Center
02:55AM 45.1500 -63.5167 137° Southeast 270 311 6,600 -1,200 Descending Moncton Center
02:56AM 45.1167 -63.4500 125° Southeast 260 299 5,600 -1,020 Descending Moncton Center
02:57AM 45.0667 -63.3500 125° Southeast 250 288 4,600 -960 Descending Moncton Center
02:58AM 45.0167 -63.3167 155° Southeast 220 253 3,700 -600 Descending Moncton Center
02:59AM 44.9833 -63.3500 215° Southwest 190 219 3,500 -600 Descending Moncton Center
03:00AM 44.9500 -63.4000 227° Southwest 170 196 2,600 -900 Descending Moncton Center
03:01AM 44.9167 -63.4500 227° Southwest 160 184 1,700 -840 Descending Moncton Center
03:02AM 44.8833 -63.4833 215° Southwest 140 161 1,000 -720 Descending Moncton Center